createdAt,value
2022-10-01T00:04:32.637Z,992.8
2022-10-01T00:09:32.635Z,992.9
2022-10-01T00:14:32.648Z,993.0
2022-10-01T00:19:32.646Z,993.0
2022-10-01T00:24:32.628Z,992.9
2022-10-01T00:29:32.651Z,992.9
2022-10-01T00:34:32.647Z,992.9
2022-10-01T00:39:32.655Z,992.9
2022-10-01T00:44:32.635Z,992.8
2022-10-01T00:49:32.644Z,992.8
2022-10-01T00:54:32.645Z,992.9
2022-10-01T00:59:32.637Z,992.9
2022-10-01T01:04:32.668Z,993.0
2022-10-01T01:09:32.629Z,993.1
2022-10-01T01:14:32.646Z,993.1
2022-10-01T01:19:32.653Z,993.1
2022-10-01T01:24:32.654Z,993.2
2022-10-01T01:29:32.637Z,993.3
2022-10-01T01:34:32.645Z,993.4
2022-10-01T01:39:32.663Z,993.5
2022-10-01T01:44:32.642Z,993.6
2022-10-01T01:49:32.641Z,993.8
2022-10-01T01:54:32.703Z,993.7
2022-10-01T01:59:32.648Z,993.9
2022-10-01T02:04:32.650Z,993.9
2022-10-01T02:09:32.654Z,994.0
2022-10-01T02:14:32.643Z,994.0
2022-10-01T02:19:32.664Z,994.0
2022-10-01T02:24:32.649Z,994.1
2022-10-01T02:29:32.653Z,994.2
2022-10-01T02:34:32.650Z,994.2
2022-10-01T02:39:32.658Z,994.2
2022-10-01T02:44:32.654Z,994.3
2022-10-01T02:49:32.642Z,994.3
2022-10-01T02:54:32.677Z,994.4
2022-10-01T02:59:32.615Z,994.4
2022-10-01T03:04:32.654Z,994.5
2022-10-01T03:09:32.660Z,994.5
2022-10-01T03:14:32.659Z,994.5
2022-10-01T03:19:32.645Z,994.5
2022-10-01T03:24:32.658Z,994.5
2022-10-01T03:29:32.646Z,994.6
2022-10-01T03:34:32.656Z,994.6
2022-10-01T03:39:32.637Z,994.6
2022-10-01T03:44:32.653Z,994.7
2022-10-01T03:49:32.655Z,994.7
2022-10-01T03:54:32.666Z,994.8
2022-10-01T03:59:32.651Z,994.9
2022-10-01T04:04:32.654Z,995.0
2022-10-01T04:09:32.684Z,995.0
2022-10-01T04:14:32.649Z,995.2
2022-10-01T04:19:32.665Z,995.2
2022-10-01T04:24:32.644Z,995.3
2022-10-01T04:29:35.668Z,995.4
2022-10-01T04:34:32.650Z,995.5
2022-10-01T04:39:32.682Z,995.5
2022-10-01T04:44:32.657Z,995.6
2022-10-01T04:49:32.648Z,995.7
2022-10-01T04:54:32.667Z,995.7
2022-10-01T04:59:32.663Z,995.8
2022-10-01T05:04:32.632Z,995.9
2022-10-01T05:09:32.668Z,996.0
2022-10-01T05:14:32.643Z,996.0
2022-10-01T05:19:32.641Z,996.1
2022-10-01T05:24:32.659Z,996.1
2022-10-01T05:29:32.638Z,996.2
2022-10-01T05:34:32.619Z,996.2
2022-10-01T05:39:32.652Z,996.3
2022-10-01T05:44:32.636Z,996.3
2022-10-01T05:49:32.629Z,996.4
2022-10-01T05:54:32.636Z,996.5
2022-10-01T05:59:32.624Z,996.5
2022-10-01T06:04:34.059Z,996.6
2022-10-01T06:09:32.617Z,996.7
2022-10-01T06:14:32.633Z,996.7
2022-10-01T06:19:32.615Z,996.9
2022-10-01T06:24:32.622Z,996.9
2022-10-01T06:29:32.635Z,997.0
2022-10-01T06:34:32.637Z,997.1
2022-10-01T06:39:32.648Z,997.1
2022-10-01T06:44:32.665Z,997.1
2022-10-01T06:49:32.654Z,997.2
2022-10-01T06:54:32.666Z,997.2
2022-10-01T06:59:32.668Z,997.3
2022-10-01T07:04:32.676Z,997.4
2022-10-01T07:09:32.685Z,997.5
2022-10-01T07:14:32.699Z,997.6
2022-10-01T07:19:32.706Z,997.6
2022-10-01T07:24:32.720Z,997.7
2022-10-01T07:29:32.737Z,997.6
2022-10-01T07:34:32.725Z,997.6
2022-10-01T07:39:32.742Z,997.7
2022-10-01T07:44:32.756Z,997.8
2022-10-01T07:49:32.770Z,997.8
2022-10-01T07:54:32.757Z,997.8
2022-10-01T07:59:32.786Z,997.9
2022-10-01T08:04:32.826Z,998.0
2022-10-01T08:09:32.831Z,998.1
2022-10-01T08:14:32.839Z,998.1
2022-10-01T08:19:32.813Z,998.1
2022-10-01T08:24:32.837Z,998.1
2022-10-01T08:29:32.826Z,998.3
2022-10-01T08:34:32.825Z,998.3
2022-10-01T08:39:32.826Z,998.4
2022-10-01T08:44:32.825Z,998.4
2022-10-01T08:49:32.829Z,998.4
2022-10-01T08:54:32.833Z,998.4
2022-10-01T08:59:32.816Z,998.5
2022-10-01T09:04:32.870Z,998.6
2022-10-01T09:09:32.820Z,998.8
2022-10-01T09:14:32.828Z,998.8
2022-10-01T09:19:32.837Z,998.9
2022-10-01T09:24:32.833Z,998.9
2022-10-01T09:29:32.834Z,998.9
2022-10-01T09:34:32.832Z,999.0
2022-10-01T09:39:32.839Z,999.0
2022-10-01T09:44:32.842Z,999.1
2022-10-01T09:49:32.835Z,999.2
2022-10-01T09:54:32.851Z,999.3
2022-10-01T09:59:32.864Z,999.4
2022-10-01T10:04:32.834Z,999.5
2022-10-01T10:09:32.848Z,999.6
2022-10-01T10:14:32.847Z,999.5
2022-10-01T10:19:32.861Z,999.6
2022-10-01T10:24:32.871Z,999.8
2022-10-01T10:29:32.848Z,999.7
2022-10-01T10:34:32.855Z,999.9
2022-10-01T10:39:32.847Z,999.9
2022-10-01T10:44:32.870Z,999.9
2022-10-01T10:49:32.880Z,1000.0
2022-10-01T10:54:32.856Z,1000.1
2022-10-01T10:59:32.865Z,1000.2
2022-10-01T11:04:32.862Z,1000.2
2022-10-01T11:09:32.852Z,1000.3
2022-10-01T11:14:32.871Z,1000.4
2022-10-01T11:19:32.864Z,1000.5
2022-10-01T11:24:32.864Z,1000.6
2022-10-01T11:29:32.863Z,1000.6
2022-10-01T11:34:32.875Z,1000.6
2022-10-01T11:39:32.854Z,1000.7
2022-10-01T11:44:32.882Z,1000.7
2022-10-01T11:49:32.871Z,1000.7
2022-10-01T11:54:32.885Z,1000.7
2022-10-01T11:59:32.929Z,1000.7
2022-10-01T12:04:32.842Z,1000.9
2022-10-01T12:09:32.884Z,1001.0
2022-10-01T12:14:32.884Z,1001.0
2022-10-01T12:19:32.884Z,1000.9
2022-10-01T12:24:32.882Z,1000.9
2022-10-01T12:29:32.882Z,1001.0
2022-10-01T12:34:32.885Z,1000.9
2022-10-01T12:39:32.888Z,1001.0
2022-10-01T12:44:32.889Z,1001.0
2022-10-01T12:49:32.875Z,1001.0
2022-10-01T12:54:32.904Z,1001.1
2022-10-01T12:59:32.881Z,1001.1
2022-10-01T13:04:32.895Z,1001.2
2022-10-01T13:09:32.887Z,1001.2
2022-10-01T13:14:32.905Z,1001.4
2022-10-01T13:19:32.910Z,1001.4
2022-10-01T13:24:32.895Z,1001.5
2022-10-01T13:29:32.897Z,1001.5
2022-10-01T13:34:32.911Z,1001.5
2022-10-01T13:39:36.575Z,1001.5
2022-10-01T13:44:32.932Z,1001.6
2022-10-01T13:49:32.906Z,1001.5
2022-10-01T13:54:32.914Z,1001.6
2022-10-01T13:59:32.907Z,1001.6
2022-10-01T14:04:32.922Z,1001.7
2022-10-01T14:09:32.965Z,1001.7
2022-10-01T14:14:32.921Z,1001.8
2022-10-01T14:19:32.928Z,1001.8
2022-10-01T14:24:32.923Z,1001.9
2022-10-01T14:29:32.914Z,1002.0
2022-10-01T14:34:32.947Z,1002.0
2022-10-01T14:39:32.933Z,1001.9
2022-10-01T14:44:32.919Z,1002.0
2022-10-01T14:49:32.945Z,1002.0
2022-10-01T14:54:32.926Z,1001.9
2022-10-01T14:59:32.936Z,1001.9
2022-10-01T15:04:33.046Z,1002.0
2022-10-01T15:09:32.926Z,1002.0
2022-10-01T15:14:32.925Z,1002.1
2022-10-01T15:19:32.948Z,1002.1
2022-10-01T15:24:32.959Z,1002.1
2022-10-01T15:29:32.922Z,1002.1
2022-10-01T15:34:32.945Z,1002.3
2022-10-01T15:39:32.929Z,1002.3
2022-10-01T15:44:36.409Z,1002.3
2022-10-01T15:49:32.935Z,1002.3
2022-10-01T15:54:32.951Z,1002.5
2022-10-01T15:59:32.935Z,1002.5
2022-10-01T16:04:32.953Z,1002.6
2022-10-01T16:09:32.925Z,1002.5
2022-10-01T16:14:32.945Z,1002.6
2022-10-01T16:19:32.942Z,1002.7
2022-10-01T16:24:32.930Z,1002.7
2022-10-01T16:29:32.935Z,1002.9
2022-10-01T16:34:32.945Z,1003.0
2022-10-01T16:39:32.945Z,1003.0
2022-10-01T16:44:32.936Z,1003.1
2022-10-01T16:49:32.954Z,1003.2
2022-10-01T16:54:32.937Z,1003.2
2022-10-01T16:59:32.942Z,1003.4
2022-10-01T17:04:33.833Z,1003.5
2022-10-01T17:09:32.957Z,1003.6
2022-10-01T17:14:32.933Z,1003.7
2022-10-01T17:19:32.959Z,1003.7
2022-10-01T17:24:32.977Z,1003.9
2022-10-01T17:29:32.934Z,1003.8
2022-10-01T17:34:32.951Z,1003.9
2022-10-01T17:39:32.933Z,1004.0
2022-10-01T17:44:32.954Z,1004.1
2022-10-01T17:49:32.935Z,1004.2
2022-10-01T17:54:32.949Z,1004.3
2022-10-01T17:59:32.941Z,1004.4
2022-10-01T18:04:32.943Z,1004.4
2022-10-01T18:09:32.947Z,1004.6
2022-10-01T18:14:32.945Z,1004.5
2022-10-01T18:19:54.045Z,1004.6
2022-10-01T18:24:32.953Z,1004.7
2022-10-01T18:29:32.941Z,1004.7
2022-10-01T18:34:32.956Z,1004.8
2022-10-01T18:39:32.949Z,1004.7
2022-10-01T18:44:32.950Z,1004.8
2022-10-01T18:49:32.948Z,1004.9
2022-10-01T18:54:32.943Z,1004.8
2022-10-01T18:59:32.947Z,1005.0
2022-10-01T19:04:32.960Z,1005.0
2022-10-01T19:09:32.940Z,1005.1
2022-10-01T19:14:32.951Z,1005.2
2022-10-01T19:19:32.953Z,1005.3
2022-10-01T19:24:32.949Z,1005.4
2022-10-01T19:29:32.948Z,1005.6
2022-10-01T19:34:32.965Z,1005.6
2022-10-01T19:39:32.956Z,1005.6
2022-10-01T19:44:32.954Z,1005.6
2022-10-01T19:49:32.953Z,1005.7
2022-10-01T19:54:32.955Z,1005.9
2022-10-01T19:59:32.945Z,1006.0
2022-10-01T20:04:33.010Z,1006.1
2022-10-01T20:09:32.974Z,1006.1
2022-10-01T20:14:33.006Z,1006.1
2022-10-01T20:19:33.015Z,1006.2
2022-10-01T20:24:33.018Z,1006.2
2022-10-01T20:29:33.014Z,1006.3
2022-10-01T20:34:33.023Z,1006.4
2022-10-01T20:39:32.990Z,1006.4
2022-10-01T20:44:33.027Z,1006.5
2022-10-01T20:49:33.017Z,1006.6
2022-10-01T20:54:33.019Z,1006.7
2022-10-01T20:59:33.025Z,1006.7
2022-10-01T21:04:33.021Z,1006.8
2022-10-01T21:09:33.023Z,1006.8
2022-10-01T21:14:33.020Z,1006.8
2022-10-01T21:19:33.025Z,1006.9
2022-10-01T21:24:33.023Z,1006.9
2022-10-01T21:29:33.021Z,1007.0
2022-10-01T21:34:33.029Z,1007.0
2022-10-01T21:39:33.009Z,1007.1
2022-10-01T21:44:33.028Z,1007.1
2022-10-01T21:49:33.024Z,1007.1
2022-10-01T21:54:33.027Z,1007.0
2022-10-01T21:59:33.035Z,1007.0
2022-10-01T22:04:33.033Z,1007.1
2022-10-01T22:09:33.031Z,1007.2
2022-10-01T22:14:33.038Z,1007.2
2022-10-01T22:19:33.041Z,1007.3
2022-10-01T22:24:33.039Z,1007.4
2022-10-01T22:29:33.029Z,1007.5
2022-10-01T22:34:33.039Z,1007.6
2022-10-01T22:39:33.016Z,1007.7
2022-10-01T22:44:33.043Z,1007.7
2022-10-01T22:49:33.048Z,1007.7
2022-10-01T22:54:33.054Z,1007.8
2022-10-01T22:59:33.013Z,1007.8
2022-10-01T23:04:33.064Z,1007.8
2022-10-01T23:09:33.043Z,1007.9
2022-10-01T23:14:33.006Z,1007.9
2022-10-01T23:19:33.043Z,1007.9
2022-10-01T23:24:33.010Z,1008.0
2022-10-01T23:29:33.041Z,1008.1
2022-10-01T23:34:33.049Z,1008.3
2022-10-01T23:39:33.059Z,1008.3
2022-10-01T23:44:33.006Z,1008.3
2022-10-01T23:49:33.052Z,1008.3
2022-10-01T23:54:33.015Z,1008.4
2022-10-01T23:59:33.009Z,1008.6
